KCAO/CAO METAR and TAF weather

Enter ICAO airport designator
Station Type Date Time Source
KCAO METAR 2019/06/17 06:55 UTC NOAA

KCAO 170655Z AUTO 17012KT 10SM -RA BKN095 OVC110 17/14 A3009 RMK AO2 WSHFT 0612 LTG DSNT S RAB39 SLP131 P0000 T01670139 402500133


Station Type Date Time Source
KCAO Decoded METAR 2019/06/17 06:55 UTC NOAA

CLAYTON MUNICIPAL AIRPARK, NM, United States (KCAO) 36-27N 103-09W 1514M
Jun 17, 2019 - 02:55 AM EDT / 2019.06.17 0655 UTC
Wind: from the S (170 degrees) at 14 MPH (12 KT):0
Visibility: 10 mile(s):0
Sky conditions: overcast
Weather: light rain; Lightning observed
Precipitation last hour: A trace
Temperature: 62.1 F (16.7 C)
Dew Point: 57.0 F (13.9 C)
Relative Humidity: 83%
Pressure (altimeter): 30.09 in. Hg (1018 hPa)
ob: KCAO 170655Z AUTO 17012KT 10SM -RA BKN095 OVC110 17/14 A3009 RMK AO2 WSHFT 0612 LTG DSNT S RAB39 SLP131 P0000 T01670139 402500133
cycle: 7

Station Type Date Time Source
KCAO TAF UTC NOAA

Error!

Example: see airport list